Aérodrome :
LOGIN :

S'inscrire | Disclaimer

   EN    FR    IT 

 










Légende :    VFR   VFR Marginal   IFR   IFR Intensif   IFR Très Intensif
Visi : 
Plafond : 
>= 8 km
>= 3000ft
5 à 8 km
1000 à 3000 ft
1500m à 5 km
500 à 1000 ft
800 à 1500m
200 à 500 ft
< 800m
< 200 ft
Symboles :   Orages  Brouillard  Fortes neiges  Fortes précipitations  Vent > 20 kt
SIGMETs :   Divers  Orages  Givrage  Turbulence  Onde Orograph.  Cendres Volcan.






- Altitude de l'aérodrome : 247 ft
- Code IATA : BLL


EKBI - Billund

DERNIER METAR :
  • 201420Z AUTO 15004KT 120V180 9999 FEW017/// FEW020/// 13/10 Q1011

METARs EXPIRÉS :
  • 201350Z AUTO 16004KT 130V200 9999 SCT014/// 13/10 Q1010
  • 201320Z AUTO 17006KT 9999 SCT011/// 13/11 Q1010
  • 201250Z AUTO 19006KT 9999 SCT013/// 13/10 Q1010
  • 201220Z AUTO 19005KT 160V220 9999 SCT011/// BKN013/// 13/11 Q1010
  • 201150Z AUTO 20005KT 170V240 9999 BKN008/// 12/11 Q1010

TAF TAF EKBI
Valide du 20 à 12h jusqu'au 21 à 12h UTC


201100Z 2012/2112 VRB02KT 9000 SCT020
TEMPO 2012/2017 BKN008 FEW020CB
BECMG 2017/2020 3000 BR
TEMPO 2020/2022 0300 BCFG
BECMG 2022/2024 0100 FG BKN001
TEMPO 2100/2108 0800 BKN002
BECMG 2108/2110 2000 BR BKN004
BECMG 2110/2112 6000 RADZ BKN008



MET'MAP, la Météo Aéronautique d'un coup d'oeil ! - Copyright ORBIFLY Décembre 2007 - Disclaimer

ORBIFLY MET'MAP TEAM :

Programmation & Développement : Alexandra Zaïnal
Conception & Développement : Baudouin d'Aumeries
Co-Programmation & Développement : Marc-Olivier Méhu
Soutien technique & logistique : Manuel Goepfert

Contact : metmap@orbifly.com




SOURCES & CREDITS :

   NOAA